Time;durP1;ratioP1;P1;durP2;ratioP2;P2;SDS_P1;SDS_P2;PMS_P1;PMS_P2;Temp;Humidity;BMP_temperature;BMP_pressure;BME280_temperature;BME280_humidity;BME280_pressure;Samples;Min_cycle;Max_cycle;Signal;HPM_P1;HPM_P2
2023/09/05 00:01:23;;;;;;;2.40;1.42;;;25.40;96.70;;;;;;5071721;28;20047;-77
2023/09/05 00:03:51;;;;;;;2.95;1.40;;;25.40;96.70;;;;;;5088888;28;20070;-77
2023/09/05 00:06:20;;;;;;;1.98;1.33;;;25.40;96.70;;;;;;5106424;28;20051;-77
2023/09/05 00:08:48;;;;;;;2.95;1.25;;;25.40;96.70;;;;;;5079384;28;20044;-77
2023/09/05 00:11:17;;;;;;;1.48;1.00;;;25.30;96.70;;;;;;5106367;28;20043;-77
2023/09/05 00:13:44;;;;;;;2.08;1.55;;;25.40;96.70;;;;;;5105641;28;20059;-76
2023/09/05 00:16:13;;;;;;;2.35;1.13;;;25.30;96.70;;;;;;5088295;28;20047;-76
2023/09/05 00:18:42;;;;;;;2.22;1.38;;;25.30;96.70;;;;;;5105878;28;20054;-77
2023/09/05 00:21:15;;;;;;;2.35;1.00;;;25.30;96.70;;;;;;5106005;28;20051;-77
2023/09/05 00:23:44;;;;;;;3.03;1.30;;;25.30;96.70;;;;;;5105891;28;20679;-77
2023/09/05 00:26:13;;;;;;;2.60;1.35;;;25.20;96.70;;;;;;5105890;28;20063;-76
2023/09/05 00:28:43;;;;;;;2.15;1.25;;;25.20;96.70;;;;;;5083517;28;20055;-77
2023/09/05 00:31:14;;;;;;;2.38;1.25;;;25.20;96.70;;;;;;5089346;28;20051;-77
2023/09/05 00:33:42;;;;;;;2.70;1.13;;;25.20;96.70;;;;;;5095780;28;20405;-77
2023/09/05 00:36:12;;;;;;;2.15;1.20;;;25.20;96.70;;;;;;5087022;28;20496;-77
2023/09/05 00:38:42;;;;;;;2.10;1.55;;;25.20;96.70;;;;;;5105196;28;20043;-77
2023/09/05 00:41:11;;;;;;;1.70;1.33;;;25.20;96.70;;;;;;5105682;28;20532;-76
2023/09/05 00:43:39;;;;;;;2.60;1.80;;;25.10;96.70;;;;;;5086968;28;20039;-76
2023/09/05 00:46:07;;;;;;;1.55;1.17;;;25.10;96.70;;;;;;5071246;28;20134;-77
2023/09/05 00:48:37;;;;;;;1.30;1.15;;;25.10;96.70;;;;;;5087261;28;20051;-77
2023/09/05 00:51:05;;;;;;;1.80;1.08;;;25.10;96.70;;;;;;5087612;28;20047;-77
2023/09/05 00:53:33;;;;;;;2.20;1.33;;;25.10;96.70;;;;;;5083771;28;20036;-76
2023/09/05 00:56:02;;;;;;;4.75;1.33;;;25.10;96.70;;;;;;5103429;28;20672;-77
2023/09/05 00:58:31;;;;;;;4.70;1.40;;;25.00;96.70;;;;;;5104916;28;20530;-77
2023/09/05 01:00:59;;;;;;;2.33;1.13;;;25.00;96.70;;;;;;5087873;28;20040;-77
2023/09/05 01:03:27;;;;;;;4.47;1.60;;;25.00;96.70;;;;;;5071037;28;20046;-77
2023/09/05 01:06:03;;;;;;;1.88;1.30;;;25.00;96.70;;;;;;5070873;28;20044;-77
2023/09/05 01:08:39;;;;;;;2.10;1.40;;;25.10;96.70;;;;;;5105358;28;20126;-77
2023/09/05 01:11:11;;;;;;;3.47;1.40;;;25.00;96.70;;;;;;5095468;28;20495;-77
2023/09/05 01:13:41;;;;;;;2.25;1.40;;;25.00;96.70;;;;;;5070707;28;20062;-77
2023/09/05 01:16:09;;;;;;;1.98;1.20;;;25.00;96.70;;;;;;5087124;28;20105;-77
2023/09/05 01:18:40;;;;;;;2.88;1.27;;;25.00;96.70;;;;;;5104912;28;20046;-77
2023/09/05 01:21:20;;;;;;;2.30;1.33;;;25.00;96.70;;;;;;5087227;28;20118;-77
2023/09/05 01:23:55;;;;;;;1.33;1.10;;;25.00;96.70;;;;;;5098063;28;20052;-77
2023/09/05 01:26:29;;;;;;;2.95;1.40;;;25.00;96.70;;;;;;5087115;28;20134;-76
2023/09/05 01:29:00;;;;;;;2.85;1.38;;;25.00;96.70;;;;;;5087133;28;20620;-77
2023/09/05 01:31:29;;;;;;;3.03;1.10;;;25.00;96.70;;;;;;5086935;28;20531;-76
2023/09/05 01:33:57;;;;;;;1.65;1.10;;;25.00;96.70;;;;;;5066677;28;20063;-77
2023/09/05 01:36:25;;;;;;;1.50;1.17;;;25.10;96.70;;;;;;5082945;28;20104;-77
2023/09/05 01:38:54;;;;;;;1.58;1.10;;;25.10;96.70;;;;;;5066387;28;20075;-77
2023/09/05 01:41:22;;;;;;;2.22;1.23;;;25.10;96.70;;;;;;5083221;28;20564;-77
2023/09/05 01:43:52;;;;;;;3.70;1.52;;;25.10;96.70;;;;;;5082464;28;20097;-77
2023/09/05 01:46:21;;;;;;;3.42;1.10;;;25.10;96.70;;;;;;5062289;28;20558;-77
2023/09/05 01:48:49;;;;;;;1.85;1.30;;;25.10;96.70;;;;;;5083032;28;20036;-76
2023/09/05 01:51:19;;;;;;;3.08;1.33;;;25.00;96.70;;;;;;5085194;28;20053;-77
2023/09/05 01:53:47;;;;;;;2.35;1.30;;;25.00;96.70;;;;;;5066283;28;20036;-77
2023/09/05 01:56:16;;;;;;;3.22;1.40;;;24.70;96.70;;;;;;5066277;28;20570;-76
2023/09/05 01:58:44;;;;;;;2.30;1.30;;;24.40;96.70;;;;;;5082892;28;20052;-76
2023/09/05 02:01:14;;;;;;;2.83;1.48;;;24.30;96.70;;;;;;5084850;28;20040;-76
2023/09/05 02:03:43;;;;;;;2.58;1.30;;;24.30;96.70;;;;;;5085930;28;20048;-77
2023/09/05 02:06:13;;;;;;;3.28;1.50;;;24.10;96.70;;;;;;5083517;28;20480;-78
2023/09/05 02:08:41;;;;;;;2.35;1.60;;;24.10;96.70;;;;;;5086894;28;20075;-77
2023/09/05 02:11:12;;;;;;;2.30;1.42;;;24.20;96.70;;;;;;5086711;28;20040;-76
2023/09/05 02:13:40;;;;;;;2.17;1.40;;;24.00;96.70;;;;;;5086436;28;20055;-76
2023/09/05 02:16:08;;;;;;;1.35;1.02;;;23.90;96.70;;;;;;5070308;28;20048;-77
2023/09/05 02:18:39;;;;;;;2.42;1.50;;;24.20;96.70;;;;;;5070151;28;20517;-77
2023/09/05 02:21:08;;;;;;;2.40;1.27;;;24.30;96.70;;;;;;5086839;28;20052;-77
2023/09/05 02:23:36;;;;;;;1.85;1.30;;;24.30;96.70;;;;;;5069352;28;20050;-76
2023/09/05 02:26:04;;;;;;;1.83;1.33;;;24.30;96.70;;;;;;5070120;28;20497;-77
2023/09/05 02:28:32;;;;;;;3.47;1.20;;;24.30;96.70;;;;;;5087746;28;20059;-77
2023/09/05 02:31:05;;;;;;;2.20;1.35;;;24.10;96.70;;;;;;5069745;28;20076;-77
2023/09/05 02:33:37;;;;;;;2.30;1.40;;;24.20;96.70;;;;;;5086342;28;20550;-77
2023/09/05 02:36:21;;;;;;;2.13;1.20;;;24.30;96.70;;;;;;5085996;28;20101;-76
2023/09/05 02:38:49;;;;;;;2.42;1.30;;;24.40;96.70;;;;;;5086710;28;20063;-77
2023/09/05 02:41:17;;;;;;;3.63;1.38;;;24.50;96.70;;;;;;5086521;28;20069;-77
2023/09/05 02:43:48;;;;;;;2.15;1.40;;;24.40;96.70;;;;;;5086131;28;20047;-77
2023/09/05 02:46:16;;;;;;;2.03;1.30;;;24.50;96.70;;;;;;5069349;28;20494;-76
2023/09/05 02:48:45;;;;;;;1.65;1.30;;;24.40;96.70;;;;;;5087406;28;20512;-76
2023/09/05 02:51:16;;;;;;;2.63;1.63;;;24.20;96.70;;;;;;5086298;28;20106;-76
2023/09/05 02:53:45;;;;;;;2.50;1.67;;;24.20;96.70;;;;;;5082641;28;20043;-76
2023/09/05 02:56:13;;;;;;;1.88;1.25;;;24.30;96.70;;;;;;5085136;28;20133;-77
2023/09/05 02:58:41;;;;;;;2.50;1.20;;;24.30;96.70;;;;;;5068747;28;20048;-77
2023/09/05 03:01:11;;;;;;;1.98;1.50;;;24.40;96.70;;;;;;5079251;28;20082;-76
2023/09/05 03:03:39;;;;;;;1.65;1.20;;;24.30;96.70;;;;;;5085825;28;20469;-76
2023/09/05 03:06:09;;;;;;;1.85;1.20;;;24.30;96.70;;;;;;5085988;28;20532;-77
2023/09/05 03:08:38;;;;;;;4.88;1.50;;;24.40;96.70;;;;;;5085927;28;20040;-77
2023/09/05 03:11:08;;;;;;;1.65;1.08;;;24.40;96.70;;;;;;5085477;28;20114;-77
2023/09/05 03:13:36;;;;;;;2.00;1.23;;;24.40;96.70;;;;;;5085212;28;20080;-76
2023/09/05 03:16:05;;;;;;;1.95;1.60;;;24.40;96.70;;;;;;5085627;28;20044;-76
2023/09/05 03:18:35;;;;;;;4.85;1.30;;;24.40;96.70;;;;;;5085148;28;20058;-77
2023/09/05 03:21:04;;;;;;;2.55;1.40;;;24.30;96.70;;;;;;5085789;28;20056;-76
2023/09/05 03:23:32;;;;;;;1.58;1.00;;;24.40;96.70;;;;;;5068912;28;20051;-77
2023/09/05 03:26:02;;;;;;;1.80;1.33;;;24.30;96.70;;;;;;5085684;28;20060;-76
2023/09/05 03:28:39;;;;;;;1.23;1.10;;;24.30;96.70;;;;;;5084924;28;20055;-76
2023/09/05 03:31:10;;;;;;;1.50;1.10;;;24.20;96.70;;;;;;5069361;28;20063;-76
2023/09/05 03:33:39;;;;;;;4.85;1.23;;;24.20;96.70;;;;;;5068398;28;20059;-77
2023/09/05 03:36:09;;;;;;;1.92;1.33;;;24.20;96.70;;;;;;5086049;28;20055;-77
2023/09/05 03:38:37;;;;;;;2.28;1.13;;;24.20;96.70;;;;;;5078739;28;20056;-76
2023/09/05 03:41:08;;;;;;;1.60;1.13;;;24.20;96.70;;;;;;5064900;28;20552;-76
2023/09/05 03:43:37;;;;;;;2.58;1.20;;;24.20;96.70;;;;;;5080586;28;20083;-76
2023/09/05 03:46:05;;;;;;;2.15;1.25;;;24.20;96.70;;;;;;5085121;28;20075;-76
2023/09/05 03:48:34;;;;;;;1.75;1.20;;;24.20;96.70;;;;;;5085882;28;20039;-77
2023/09/05 03:51:02;;;;;;;1.95;1.33;;;24.30;96.70;;;;;;5077629;28;20702;-77
2023/09/05 03:53:32;;;;;;;3.30;1.52;;;24.30;96.70;;;;;;5084944;28;20409;-77
2023/09/05 03:56:06;;;;;;;3.25;1.20;;;24.20;96.70;;;;;;5066939;28;20056;-77
2023/09/05 03:58:35;;;;;;;1.45;1.08;;;24.20;96.70;;;;;;5082344;28;20048;-77
2023/09/05 04:01:04;;;;;;;2.17;1.55;;;24.30;96.70;;;;;;5084663;28;20073;-76
2023/09/05 04:03:33;;;;;;;3.25;1.40;;;24.30;96.70;;;;;;5076722;28;20139;-77
2023/09/05 04:06:02;;;;;;;2.50;1.40;;;24.30;96.70;;;;;;5064877;28;20503;-77
2023/09/05 04:08:30;;;;;;;2.42;1.15;;;24.20;96.70;;;;;;5079880;28;20036;-75
2023/09/05 04:11:00;;;;;;;3.17;1.42;;;24.30;96.70;;;;;;5067533;28;20141;-77
2023/09/05 04:13:31;;;;;;;3.10;1.42;;;24.30;96.70;;;;;;5085674;28;20459;-76
2023/09/05 04:16:04;;;;;;;2.85;1.17;;;24.30;96.70;;;;;;5065720;28;20051;-76
2023/09/05 04:18:33;;;;;;;4.32;1.20;;;24.20;96.70;;;;;;5084103;28;20056;-77
2023/09/05 04:21:01;;;;;;;2.10;1.42;;;24.30;96.70;;;;;;5086067;28;20489;-77
2023/09/05 04:23:29;;;;;;;2.00;1.23;;;24.30;96.70;;;;;;5083781;28;20849;-77
2023/09/05 04:25:59;;;;;;;5.30;1.38;;;24.20;96.70;;;;;;5084138;28;20161;-77
2023/09/05 04:28:30;;;;;;;3.85;1.55;;;24.20;96.70;;;;;;5083395;28;20497;-77
2023/09/05 04:31:02;;;;;;;3.22;1.52;;;24.20;96.70;;;;;;5084415;28;20158;-77
2023/09/05 04:33:37;;;;;;;3.60;1.20;;;24.30;96.70;;;;;;5089387;28;20051;-76
2023/09/05 04:36:09;;;;;;;2.45;1.50;;;24.30;96.70;;;;;;5087444;28;20051;-77
2023/09/05 04:38:38;;;;;;;2.97;1.23;;;24.20;96.70;;;;;;5097228;28;20043;-76
2023/09/05 04:41:09;;;;;;;3.45;1.48;;;24.10;96.70;;;;;;5088519;28;20048;-77
2023/09/05 04:43:39;;;;;;;2.20;1.25;;;24.10;96.70;;;;;;5087375;28;20459;-76
2023/09/05 04:46:09;;;;;;;3.25;1.20;;;24.20;96.70;;;;;;5101785;28;20040;-77
2023/09/05 04:48:38;;;;;;;3.88;1.25;;;24.30;96.70;;;;;;5104666;28;20120;-76
2023/09/05 04:51:06;;;;;;;1.73;1.40;;;24.30;96.70;;;;;;5079078;28;20237;-77
2023/09/05 04:53:34;;;;;;;2.25;1.27;;;24.20;96.70;;;;;;5088025;28;20071;-76
2023/09/05 04:56:03;;;;;;;3.15;1.52;;;24.20;96.70;;;;;;5087578;28;20040;-76
2023/09/05 04:58:32;;;;;;;2.58;1.48;;;24.10;96.70;;;;;;5070349;28;20081;-77
2023/09/05 05:01:02;;;;;;;5.80;1.85;;;24.10;96.70;;;;;;5087638;28;20074;-77
2023/09/05 05:03:32;;;;;;;2.50;1.30;;;24.10;96.70;;;;;;5105021;28;20048;-76
2023/09/05 05:06:02;;;;;;;4.13;1.30;;;24.10;96.70;;;;;;5087447;28;20039;-77
2023/09/05 05:08:31;;;;;;;3.53;1.40;;;24.20;96.70;;;;;;5086807;28;20047;-77
2023/09/05 05:11:04;;;;;;;2.15;1.55;;;24.10;96.70;;;;;;5105220;28;20044;-76
2023/09/05 05:13:33;;;;;;;5.18;1.58;;;24.10;96.70;;;;;;5087010;28;20051;-76
2023/09/05 05:16:03;;;;;;;1.77;1.40;;;24.10;96.70;;;;;;5086719;28;20481;-77
2023/09/05 05:18:31;;;;;;;2.80;1.30;;;24.10;96.70;;;;;;5079064;28;20064;-77
2023/09/05 05:21:00;;;;;;;2.40;1.30;;;24.20;96.70;;;;;;5087095;28;20035;-77
2023/09/05 05:23:28;;;;;;;1.50;1.30;;;24.20;96.70;;;;;;5086979;28;20040;-77
2023/09/05 05:26:00;;;;;;;3.75;1.50;;;24.30;96.70;;;;;;5087034;28;20413;-76
2023/09/05 05:28:28;;;;;;;3.58;1.35;;;24.30;96.70;;;;;;5104414;28;20512;-77
2023/09/05 05:30:56;;;;;;;2.70;1.27;;;24.20;96.70;;;;;;5105236;28;20136;-77
2023/09/05 05:33:26;;;;;;;3.97;1.50;;;24.20;96.70;;;;;;5070191;28;20654;-77
2023/09/05 05:35:55;;;;;;;3.83;1.40;;;24.20;96.70;;;;;;5104776;28;20044;-76
2023/09/05 05:38:24;;;;;;;3.67;1.40;;;24.20;96.70;;;;;;5104908;28;20073;-77
2023/09/05 05:40:53;;;;;;;3.47;1.60;;;24.30;96.70;;;;;;5089048;28;20081;-77
2023/09/05 05:43:21;;;;;;;3.78;1.30;;;24.30;96.70;;;;;;5090637;28;20092;-77
2023/09/05 05:45:51;;;;;;;2.00;1.25;;;24.30;96.70;;;;;;5109424;28;20039;-77
2023/09/05 05:48:20;;;;;;;5.00;1.52;;;24.30;96.70;;;;;;5109996;28;20047;-76
2023/09/05 05:50:50;;;;;;;2.55;1.27;;;24.30;96.70;;;;;;5094272;28;20040;-77
2023/09/05 05:53:20;;;;;;;5.78;1.73;;;24.30;96.70;;;;;;5090247;28;20143;-76
2023/09/05 05:55:49;;;;;;;2.47;1.40;;;24.30;96.70;;;;;;5101225;28;20043;-77
2023/09/05 05:58:17;;;;;;;1.70;1.27;;;24.30;96.70;;;;;;5073680;28;20506;-76
2023/09/05 06:00:51;;;;;;;3.67;1.30;;;24.30;96.70;;;;;;5091216;28;20058;-77
2023/09/05 06:03:20;;;;;;;4.20;1.20;;;24.40;96.70;;;;;;5104113;28;20063;-77
2023/09/05 06:05:50;;;;;;;2.50;1.30;;;24.40;96.70;;;;;;5108675;28;20071;-77
2023/09/05 06:08:19;;;;;;;2.80;1.50;;;24.40;96.70;;;;;;5108806;28;20055;-77
2023/09/05 06:10:47;;;;;;;2.85;1.63;;;24.50;96.70;;;;;;5108711;28;20043;-77
2023/09/05 06:13:15;;;;;;;3.17;1.17;;;24.40;96.70;;;;;;5089791;28;20126;-77
2023/09/05 06:15:43;;;;;;;2.53;1.23;;;24.50;96.70;;;;;;5108481;28;20040;-76
2023/09/05 06:18:14;;;;;;;3.08;1.40;;;24.50;96.70;;;;;;5089989;28;20047;-76
2023/09/05 06:20:42;;;;;;;3.40;1.30;;;24.50;96.70;;;;;;5108602;28;20630;-77
2023/09/05 06:23:12;;;;;;;3.75;1.58;;;24.50;96.70;;;;;;5090690;28;20441;-76
2023/09/05 06:25:41;;;;;;;4.60;1.85;;;24.50;96.70;;;;;;5090558;28;20048;-77
2023/09/05 06:28:09;;;;;;;4.25;1.65;;;24.50;96.70;;;;;;5090324;28;20240;-76
2023/09/05 06:30:37;;;;;;;7.13;1.70;;;24.50;96.70;;;;;;5090051;28;20048;-77
2023/09/05 06:33:05;;;;;;;2.30;1.42;;;24.60;96.70;;;;;;5098253;28;20101;-77
2023/09/05 06:35:36;;;;;;;6.00;1.63;;;24.60;96.70;;;;;;5089978;28;20048;-76
2023/09/05 06:38:05;;;;;;;3.50;1.95;;;24.60;96.70;;;;;;5108165;28;20047;-77
2023/09/05 06:40:35;;;;;;;4.20;2.05;;;24.60;96.70;;;;;;5105013;28;20043;-77
2023/09/05 06:43:04;;;;;;;2.63;1.67;;;24.60;96.70;;;;;;5072693;28;20068;-76
2023/09/05 06:45:32;;;;;;;5.45;1.75;;;24.60;96.70;;;;;;5107820;28;20039;-77
2023/09/05 06:48:00;;;;;;;2.30;1.48;;;24.60;96.70;;;;;;5098328;28;20058;-77
2023/09/05 06:50:29;;;;;;;2.40;1.52;;;24.60;96.70;;;;;;5089871;28;20142;-77
2023/09/05 06:52:57;;;;;;;3.65;1.75;;;24.60;96.70;;;;;;5107292;28;20123;-77
2023/09/05 06:55:28;;;;;;;2.38;1.73;;;24.70;96.70;;;;;;5090047;28;20036;-77
2023/09/05 06:57:58;;;;;;;2.75;1.50;;;24.70;96.70;;;;;;5107144;28;20050;-77
2023/09/05 07:00:27;;;;;;;2.47;1.73;;;24.80;96.70;;;;;;5072895;28;20057;-76
2023/09/05 07:02:55;;;;;;;2.70;1.58;;;24.90;96.70;;;;;;5107647;28;20472;-77
2023/09/05 07:05:24;;;;;;;2.85;1.58;;;24.90;96.70;;;;;;5107359;28;20051;-76
2023/09/05 07:07:52;;;;;;;4.03;1.73;;;24.80;96.70;;;;;;5107566;28;20039;-76
2023/09/05 07:10:20;;;;;;;3.58;1.80;;;24.90;96.70;;;;;;5107224;28;20489;-77
2023/09/05 07:12:48;;;;;;;3.92;2.15;;;24.90;96.70;;;;;;5098479;28;20093;-76
2023/09/05 07:15:18;;;;;;;3.50;1.63;;;25.00;96.70;;;;;;5089523;28;20146;-77
2023/09/05 07:17:46;;;;;;;3.70;1.63;;;25.00;96.70;;;;;;5089682;28;20131;-77
2023/09/05 07:20:19;;;;;;;3.22;1.73;;;25.00;96.70;;;;;;5107584;28;20463;-76
2023/09/05 07:22:48;;;;;;;4.05;1.45;;;25.00;96.70;;;;;;5089092;28;20044;-77
2023/09/05 07:25:16;;;;;;;4.15;1.58;;;25.00;96.70;;;;;;5098860;28;20039;-77
2023/09/05 07:27:44;;;;;;;4.90;1.58;;;25.10;96.70;;;;;;5107423;28;20063;-77
2023/09/05 07:30:13;;;;;;;3.33;1.48;;;25.20;96.70;;;;;;5072322;28;20059;-77
2023/09/05 07:32:48;;;;;;;3.42;1.67;;;25.20;96.70;;;;;;5107321;28;20055;-77
2023/09/05 07:35:17;;;;;;;3.05;1.67;;;25.20;96.70;;;;;;5082126;28;20139;-77
2023/09/05 07:37:45;;;;;;;2.38;1.35;;;25.30;96.70;;;;;;5097616;28;20074;-77
2023/09/05 07:40:14;;;;;;;2.25;1.73;;;25.30;96.70;;;;;;5106878;28;20067;-76
2023/09/05 07:42:42;;;;;;;3.90;1.60;;;25.40;96.70;;;;;;5106656;28;20067;-77
2023/09/05 07:45:11;;;;;;;5.45;1.55;;;25.40;96.70;;;;;;5089136;28;20068;-77
2023/09/05 07:47:39;;;;;;;3.10;1.80;;;25.40;96.70;;;;;;5089309;28;20040;-77
2023/09/05 07:50:09;;;;;;;2.58;1.50;;;25.40;96.70;;;;;;5106567;28;20135;-76
2023/09/05 07:52:38;;;;;;;2.67;1.30;;;25.50;96.70;;;;;;5106646;28;20044;-77
2023/09/05 07:55:08;;;;;;;3.75;1.50;;;25.60;96.70;;;;;;5072348;28;20116;-77
2023/09/05 07:57:36;;;;;;;3.63;1.80;;;25.50;96.70;;;;;;5088652;28;20069;-76
2023/09/05 08:00:14;;;;;;;3.13;1.33;;;25.50;96.70;;;;;;5071776;28;20043;-76
2023/09/05 08:02:43;;;;;;;4.57;1.67;;;25.50;96.70;;;;;;5099479;28;20047;-76
2023/09/05 08:05:14;;;;;;;3.17;1.50;;;25.60;96.70;;;;;;5070397;28;20097;-77
2023/09/05 08:07:42;;;;;;;2.60;1.50;;;25.60;96.70;;;;;;5106757;28;20417;-77
2023/09/05 08:10:10;;;;;;;2.05;1.60;;;25.60;96.70;;;;;;5106207;28;20462;-77
2023/09/05 08:12:39;;;;;;;2.95;1.40;;;25.60;96.70;;;;;;5088003;28;20040;-78
2023/09/05 08:15:07;;;;;;;3.70;1.42;;;25.60;96.70;;;;;;5096344;28;20048;-77
2023/09/05 08:17:36;;;;;;;3.30;1.80;;;25.70;96.70;;;;;;5080191;28;20055;-77
2023/09/05 08:20:05;;;;;;;2.83;1.40;;;25.70;96.70;;;;;;5105938;28;20043;-76
2023/09/05 08:22:35;;;;;;;2.55;1.75;;;25.80;96.70;;;;;;5088434;28;20550;-77
2023/09/05 08:25:04;;;;;;;2.33;1.63;;;25.80;96.70;;;;;;5088448;28;20044;-79
2023/09/05 08:27:32;;;;;;;1.80;1.40;;;25.80;96.70;;;;;;5087506;28;20534;-79
2023/09/05 08:30:00;;;;;;;1.88;1.50;;;25.80;96.70;;;;;;5106185;28;20402;-77
2023/09/05 08:32:30;;;;;;;5.70;1.85;;;25.80;96.70;;;;;;5087866;28;20040;-77
2023/09/05 08:34:59;;;;;;;4.07;1.42;;;25.80;96.70;;;;;;5087733;28;20135;-77
2023/09/05 08:37:29;;;;;;;2.70;1.75;;;25.90;96.70;;;;;;5087884;28;20144;-77
2023/09/05 08:39:59;;;;;;;4.53;1.80;;;25.90;96.70;;;;;;5105212;28;20043;-76
2023/09/05 08:42:29;;;;;;;6.43;1.70;;;26.00;96.70;;;;;;5087283;28;20083;-77
2023/09/05 08:44:59;;;;;;;2.45;1.50;;;26.00;96.70;;;;;;5106122;28;20696;-77
2023/09/05 08:47:28;;;;;;;6.22;1.80;;;26.00;96.70;;;;;;5105668;28;20073;-77
2023/09/05 08:49:59;;;;;;;5.30;1.50;;;26.00;96.70;;;;;;5070973;28;20446;-77
2023/09/05 08:52:31;;;;;;;3.83;1.67;;;26.10;96.70;;;;;;5087873;28;20063;-78
2023/09/05 08:55:02;;;;;;;5.60;1.88;;;26.10;96.70;;;;;;5070665;28;20051;-77
2023/09/05 08:57:33;;;;;;;3.22;1.50;;;26.00;96.70;;;;;;5070577;28;20443;-78
2023/09/05 09:00:04;;;;;;;4.25;1.67;;;26.10;96.70;;;;;;5070582;28;20051;-77
2023/09/05 09:02:34;;;;;;;2.92;1.38;;;26.10;96.70;;;;;;5087196;28;20462;-77
2023/09/05 09:05:04;;;;;;;3.47;1.60;;;26.10;96.70;;;;;;5067387;28;20044;-77
2023/09/05 09:07:32;;;;;;;4.68;1.40;;;26.20;96.70;;;;;;5105279;28;20043;-77
2023/09/05 09:10:16;;;;;;;4.30;1.73;;;26.30;96.70;;;;;;5103308;28;20059;-77
2023/09/05 09:12:45;;;;;;;3.95;1.73;;;26.40;96.70;;;;;;5085968;28;20152;-77
2023/09/05 09:15:14;;;;;;;4.72;1.75;;;26.40;96.70;;;;;;5095512;28;20040;-77
2023/09/05 09:17:42;;;;;;;3.03;1.52;;;26.40;96.70;;;;;;5105786;28;20040;-77
2023/09/05 09:20:12;;;;;;;2.47;1.55;;;26.50;96.70;;;;;;5070283;28;20521;-77
2023/09/05 09:22:44;;;;;;;3.95;1.60;;;26.60;96.70;;;;;;5105277;28;20055;-77
2023/09/05 09:25:20;;;;;;;4.60;1.50;;;26.60;96.70;;;;;;5070073;28;20071;-77
2023/09/05 09:27:51;;;;;;;;;;;26.70;96.70;;;;;;5070347;28;20712;-78
2023/09/05 09:30:23;;;;;;;3.20;1.60;;;26.70;96.70;;;;;;5105220;28;20388;-77
2023/09/05 09:32:52;;;;;;;2.83;1.80;;;26.70;96.70;;;;;;5105115;28;20052;-78
2023/09/05 09:35:20;;;;;;;3.40;1.35;;;26.70;96.70;;;;;;5070234;28;20059;-78
2023/09/05 09:37:50;;;;;;;5.25;1.73;;;26.70;96.70;;;;;;5086920;28;20492;-77
2023/09/05 09:40:20;;;;;;;4.38;1.52;;;26.90;96.70;;;;;;5086757;28;20504;-77
2023/09/05 09:42:49;;;;;;;3.00;1.77;;;26.90;96.70;;;;;;5107947;28;20355;-78
2023/09/05 09:45:18;;;;;;;1.95;1.48;;;26.90;96.70;;;;;;5087296;28;20047;-77
2023/09/05 09:47:48;;;;;;;3.42;1.58;;;27.00;96.70;;;;;;5100731;28;20044;-77
2023/09/05 09:50:19;;;;;;;1.80;1.60;;;27.00;96.70;;;;;;5086958;28;20035;-76
2023/09/05 09:52:52;;;;;;;3.25;1.60;;;27.10;96.70;;;;;;5087019;28;20046;-77
2023/09/05 09:55:25;;;;;;;2.72;1.50;;;27.20;96.70;;;;;;5086913;28;20144;-77
2023/09/05 09:58:01;;;;;;;3.53;1.60;;;27.30;96.70;;;;;;5104596;28;20057;-77
2023/09/05 10:00:32;;;;;;;3.78;1.88;;;27.40;96.70;;;;;;5104697;28;20047;-77
2023/09/05 10:03:01;;;;;;;2.58;1.60;;;27.60;96.70;;;;;;5104236;28;20389;-77
2023/09/05 10:05:32;;;;;;;2.75;2.10;;;27.70;96.70;;;;;;5105127;28;20065;-77
2023/09/05 10:08:00;;;;;;;3.72;1.92;;;27.80;96.70;;;;;;5104574;28;20073;-78
2023/09/05 10:10:31;;;;;;;5.38;1.80;;;27.80;96.70;;;;;;5086871;28;20054;-77
2023/09/05 10:13:00;;;;;;;2.67;1.60;;;27.90;96.70;;;;;;5086183;28;20096;-77
2023/09/05 10:15:30;;;;;;;5.43;1.65;;;28.00;96.70;;;;;;5086896;28;20107;-77
2023/09/05 10:17:59;;;;;;;3.63;1.85;;;28.10;96.70;;;;;;5104569;28;20048;-77
2023/09/05 10:20:28;;;;;;;3.95;1.70;;;28.10;96.70;;;;;;5104688;28;20058;-78
2023/09/05 10:22:57;;;;;;;3.90;1.60;;;28.00;96.70;;;;;;5086745;28;20150;-77
2023/09/05 10:25:28;;;;;;;2.50;1.70;;;28.00;96.70;;;;;;5086690;28;20059;-77
2023/09/05 10:27:57;;;;;;;2.00;1.80;;;28.00;96.70;;;;;;5071616;28;20047;-77
2023/09/05 10:30:27;;;;;;;2.97;1.40;;;28.20;96.70;;;;;;5108593;28;20469;-77
2023/09/05 10:32:58;;;;;;;2.85;1.50;;;28.40;96.70;;;;;;5109038;28;20043;-77
2023/09/05 10:35:30;;;;;;;2.63;1.60;;;28.40;96.70;;;;;;5108245;28;20075;-76
2023/09/05 10:38:01;;;;;;;3.08;1.77;;;28.40;96.70;;;;;;5107940;28;20126;-77
2023/09/05 10:40:33;;;;;;;3.35;2.00;;;28.50;96.70;;;;;;5090302;28;20472;-77
2023/09/05 10:43:05;;;;;;;5.60;2.05;;;28.50;96.70;;;;;;5089804;28;20039;-77
2023/09/05 10:45:34;;;;;;;4.18;1.50;;;28.60;96.70;;;;;;5089855;28;20044;-77
2023/09/05 10:48:07;;;;;;;4.88;2.13;;;28.70;96.70;;;;;;5107902;28;20050;-77
2023/09/05 10:51:08;;;;;;;2.60;1.80;;;28.70;96.70;;;;;;5089442;28;20562;-77
2023/09/05 10:53:38;;;;;;;3.88;1.63;;;28.70;96.70;;;;;;5089644;28;20070;-77
2023/09/05 10:56:35;;;;;;;3.97;1.90;;;28.70;96.70;;;;;;5097778;28;20047;-77
2023/09/05 10:59:07;;;;;;;3.92;1.73;;;28.80;96.70;;;;;;5107484;28;20052;-78
2023/09/05 11:01:48;;;;;;;4.20;2.05;;;28.80;96.70;;;;;;5107883;28;20138;-77
2023/09/05 11:04:26;;;;;;;3.92;2.08;;;28.90;96.70;;;;;;5085971;28;20075;-77
2023/09/05 11:06:56;;;;;;;2.28;1.80;;;29.00;96.70;;;;;;5073304;28;20662;-77
2023/09/05 11:09:26;;;;;;;5.70;1.75;;;29.10;96.70;;;;;;5090032;28;20043;-77
2023/09/05 11:11:55;;;;;;;4.03;1.30;;;29.10;96.70;;;;;;5107221;28;20067;-77
2023/09/05 11:14:34;;;;;;;6.55;2.08;;;29.20;96.70;;;;;;5089317;28;20124;-77
2023/09/05 11:17:03;;;;;;;5.25;1.88;;;29.20;96.70;;;;;;5089423;28;20047;-77
2023/09/05 11:19:37;;;;;;;4.60;1.90;;;29.20;96.70;;;;;;5089240;28;20063;-77
2023/09/05 11:22:11;;;;;;;2.00;1.50;;;29.20;96.70;;;;;;5088564;28;20051;-76
2023/09/05 11:24:49;;;;;;;5.55;1.95;;;29.20;96.70;;;;;;5088857;28;20169;-77
2023/09/05 11:27:21;;;;;;;4.50;2.10;;;29.40;96.70;;;;;;5072008;28;20579;-78
2023/09/05 11:29:52;;;;;;;3.75;2.13;;;29.20;96.70;;;;;;5107237;28;20048;-77
2023/09/05 11:32:26;;;;;;;3.28;1.70;;;29.30;96.70;;;;;;5107117;28;20081;-77
2023/09/05 11:34:55;;;;;;;5.55;1.85;;;29.50;96.70;;;;;;5088660;28;20055;-77
2023/09/05 11:37:23;;;;;;;5.55;1.70;;;29.50;96.70;;;;;;5107347;28;20050;-77
2023/09/05 11:39:54;;;;;;;2.38;1.95;;;29.60;96.70;;;;;;5089035;28;20036;-77
2023/09/05 11:42:30;;;;;;;5.20;2.25;;;29.70;96.70;;;;;;5089001;28;20089;-77
2023/09/05 11:45:00;;;;;;;4.97;1.70;;;29.80;96.70;;;;;;5079659;27;20134;-77
2023/09/05 11:47:28;;;;;;;3.22;1.65;;;29.80;96.70;;;;;;5097983;28;20055;-81
2023/09/05 11:49:58;;;;;;;6.40;2.22;;;29.60;96.70;;;;;;5106861;28;20074;-76
2023/09/05 11:52:27;;;;;;;3.35;1.67;;;29.70;96.70;;;;;;5088833;28;20035;-77
2023/09/05 11:54:56;;;;;;;3.60;1.80;;;29.80;96.70;;;;;;5106007;28;20046;-77
2023/09/05 11:57:25;;;;;;;4.45;1.75;;;29.90;96.70;;;;;;5088290;28;20071;-77
2023/09/05 11:59:53;;;;;;;2.03;1.58;;;30.00;96.70;;;;;;5088257;28;20051;-77
2023/09/05 12:02:23;;;;;;;4.95;1.63;;;30.10;96.70;;;;;;5088620;28;20050;-77
2023/09/05 12:04:51;;;;;;;4.55;1.95;;;30.00;96.70;;;;;;5088021;28;20076;-77
2023/09/05 12:07:24;;;;;;;5.43;1.98;;;30.10;96.70;;;;;;5088313;28;20039;-77
2023/09/05 12:09:54;;;;;;;9.70;2.00;;;30.30;96.70;;;;;;5080082;28;20502;-76
2023/09/05 12:12:22;;;;;;;3.47;1.63;;;30.30;96.70;;;;;;5106068;28;20046;-78
2023/09/05 12:14:53;;;;;;;5.55;1.75;;;30.60;96.70;;;;;;5106068;28;20035;-77
2023/09/05 12:17:25;;;;;;;3.30;1.90;;;30.60;96.70;;;;;;5106798;28;20048;-77
2023/09/05 12:19:55;;;;;;;5.35;1.65;;;30.60;96.70;;;;;;5071399;28;20070;-76
2023/09/05 12:22:28;;;;;;;2.35;1.50;;;30.50;96.70;;;;;;5106426;28;20562;-77
2023/09/05 12:25:10;;;;;;;3.38;1.60;;;30.40;96.10;;;;;;5071222;28;20074;-77
2023/09/05 12:27:44;;;;;;;6.97;1.90;;;30.30;96.00;;;;;;5084471;28;20521;-77
2023/09/05 12:30:29;;;;;;;2.20;1.67;;;30.50;96.10;;;;;;5096878;28;20043;-77
2023/09/05 12:33:00;;;;;;;4.40;1.98;;;30.60;96.20;;;;;;5086703;28;20441;-78
2023/09/05 12:35:31;;;;;;;3.75;2.10;;;30.50;95.50;;;;;;5084063;28;20056;-77
2023/09/05 12:38:00;;;;;;;5.82;2.33;;;30.50;95.50;;;;;;5083840;28;20044;-77
2023/09/05 12:40:32;;;;;;;2.70;1.73;;;30.60;96.40;;;;;;5077605;28;20468;-78
2023/09/05 12:43:01;;;;;;;4.70;2.08;;;30.70;95.80;;;;;;5083692;28;20044;-77
2023/09/05 12:45:31;;;;;;;1.98;1.88;;;30.60;95.80;;;;;;5084144;28;20101;-77
2023/09/05 12:48:01;;;;;;;2.95;2.15;;;30.60;95.80;;;;;;5085648;28;20074;-77
2023/09/05 12:50:29;;;;;;;3.28;1.75;;;30.60;95.30;;;;;;5084112;28;20044;-77
2023/09/05 12:53:00;;;;;;;3.60;2.00;;;30.50;95.60;;;;;;5085662;28;20075;-77
2023/09/05 12:55:31;;;;;;;2.53;1.85;;;30.70;95.80;;;;;;5083988;28;20403;-78
2023/09/05 12:58:04;;;;;;;6.15;1.85;;;30.70;95.40;;;;;;5083576;28;20113;-78
2023/09/05 13:00:33;;;;;;;3.60;2.10;;;30.70;95.60;;;;;;5085185;28;20081;-77
2023/09/05 13:03:06;;;;;;;2.78;1.75;;;30.70;96.00;;;;;;5084584;28;20051;-77